Time;durP1;ratioP1;P1;durP2;ratioP2;P2;SDS_P1;SDS_P2;PMS_P1;PMS_P2;Temp;Humidity;BMP_temperature;BMP_pressure;BME280_temperature;BME280_humidity;BME280_pressure;Samples;Min_cycle;Max_cycle;Signal;HPM_P1;HPM_P2
2022/05/28 00:01:04;;;;;;;3.30;2.00;;;;;;;15.19;92.07;99816.75;4995149;28;20470;-89
2022/05/28 00:03:30;;;;;;;8.55;2.00;;;;;;;15.26;93.05;99816.41;4979012;28;20515;-85
2022/05/28 00:05:56;;;;;;;3.38;2.17;;;;;;;15.28;93.98;99825.09;4961935;28;20042;-89
2022/05/28 00:08:22;;;;;;;4.10;2.25;;;;;;;15.27;93.19;99824.31;4991100;28;20029;-88
2022/05/28 00:10:47;;;;;;;2.78;1.90;;;;;;;15.23;91.20;99822.94;5011514;28;20026;-88
2022/05/28 00:13:13;;;;;;;2.33;1.73;;;;;;;15.23;90.74;99828.53;5009317;28;20434;-88
2022/05/28 00:15:41;;;;;;;2.35;1.90;;;;;;;15.20;89.58;99812.72;4978246;28;20463;-89
2022/05/28 00:18:07;;;;;;;5.32;1.90;;;;;;;15.19;89.90;99811.16;5010828;28;20038;-87
2022/05/28 00:20:33;;;;;;;3.95;2.08;;;;;;;15.09;89.87;99792.88;5007228;28;20029;-88
2022/05/28 00:22:59;;;;;;;4.57;2.05;;;;;;;15.02;88.10;99798.81;4995203;28;20033;-88
2022/05/28 00:25:24;;;;;;;3.05;2.08;;;;;;;15.06;88.07;99808.59;4995505;28;20026;-88
2022/05/28 00:27:50;;;;;;;3.58;1.90;;;;;;;15.05;86.63;99823.00;4987421;28;20038;-87
2022/05/28 00:30:16;;;;;;;2.38;1.88;;;;;;;14.99;86.84;99830.50;4979707;28;20117;-88
2022/05/28 00:32:42;;;;;;;4.22;1.75;;;;;;;14.93;84.41;99825.56;4980654;28;20057;-88
2022/05/28 00:35:11;;;;;;;2.85;1.80;;;;;;;14.93;84.87;99833.16;4975099;28;20072;-87
2022/05/28 00:37:37;;;;;;;4.53;1.60;;;;;;;14.89;84.90;99829.75;5018050;28;20032;-88
2022/05/28 00:40:09;;;;;;;4.65;1.80;;;;;;;14.88;83.43;99817.81;5016776;28;20414;-88
2022/05/28 00:42:34;;;;;;;2.75;1.77;;;;;;;14.87;83.17;99819.06;5004237;28;20049;-85
2022/05/28 00:45:00;;;;;;;2.63;1.88;;;;;;;14.86;83.21;99817.53;5008663;28;20034;-85
2022/05/28 00:47:26;;;;;;;3.33;1.77;;;;;;;14.86;82.63;99823.09;5013824;28;20207;-86
2022/05/28 01:03:24;;;;;;;3.38;2.10;;;;;;;14.88;78.59;99831.78;5119254;22;20498;-84
2022/05/28 01:06:03;;;;;;;2.08;1.58;;;;;;;14.91;80.03;99841.25;5030902;28;20038;-85
2022/05/28 01:08:40;;;;;;;3.03;1.88;;;;;;;14.96;80.75;99834.25;5032148;28;20049;-85
2022/05/28 01:11:12;;;;;;;2.60;1.70;;;;;;;14.94;80.95;99831.91;5022669;28;20129;-85
2022/05/28 01:13:54;;;;;;;3.80;2.00;;;;;;;15.02;79.48;99826.75;5031663;28;20116;-85
2022/05/28 01:16:33;;;;;;;3.88;2.10;;;;;;;14.99;80.15;99819.34;5031290;28;20494;-84
2022/05/28 01:19:36;;;;;;;5.50;2.00;;;;;;;15.02;77.85;99823.97;4995187;28;20046;-82
2022/05/28 01:22:15;;;;;;;3.33;2.00;;;;;;;14.96;78.28;99831.47;5028991;28;20045;-83
2022/05/28 01:24:59;;;;;;;3.33;2.00;;;;;;;14.98;77.16;99831.75;5015665;28;20478;-83
2022/05/28 01:27:31;;;;;;;3.50;1.90;;;;;;;14.97;75.98;99827.41;5025289;28;20092;-83
2022/05/28 01:30:02;;;;;;;2.88;1.73;;;;;;;14.98;77.25;99820.56;5013229;28;20041;-83
2022/05/28 01:32:28;;;;;;;2.47;1.77;;;;;;;15.05;76.71;99818.19;5015223;28;20056;-83
2022/05/28 01:34:54;;;;;;;1.95;1.70;;;;;;;15.00;76.75;99816.06;5014241;28;20042;-83
2022/05/28 01:37:20;;;;;;;3.92;1.83;;;;;;;15.04;76.85;99810.31;5013532;28;20030;-83
2022/05/28 01:39:47;;;;;;;3.28;2.08;;;;;;;15.08;77.25;99811.69;5030458;28;20065;-83
2022/05/28 01:42:13;;;;;;;2.85;1.90;;;;;;;15.11;75.85;99815.56;5013316;28;20434;-83
2022/05/28 01:44:40;;;;;;;3.53;2.03;;;;;;;15.09;76.64;99812.44;5030354;28;20049;-83
2022/05/28 01:47:06;;;;;;;2.75;1.70;;;;;;;15.05;77.25;99800.66;5014559;28;20054;-83
2022/05/28 01:49:32;;;;;;;4.45;2.00;;;;;;;15.08;77.55;99800.53;5031324;28;20041;-83
2022/05/28 01:52:01;;;;;;;4.70;1.80;;;;;;;15.17;77.40;99802.47;4996685;28;20391;-83
2022/05/28 01:54:30;;;;;;;4.97;2.00;;;;;;;15.10;77.49;99791.66;5014619;28;20612;-83
2022/05/28 01:56:56;;;;;;;2.47;1.75;;;;;;;15.19;76.90;99786.78;5001047;28;20045;-84
2022/05/28 01:59:24;;;;;;;3.00;2.00;;;;;;;15.12;76.91;99794.75;5030711;28;20402;-83
2022/05/28 02:01:51;;;;;;;3.60;1.83;;;;;;;14.96;76.26;99781.97;5011623;28;20041;-83
2022/05/28 02:04:17;;;;;;;2.78;1.90;;;;;;;14.98;77.07;99781.47;5012183;28;20084;-84
2022/05/28 02:06:43;;;;;;;4.65;2.08;;;;;;;15.03;77.04;99789.22;5013010;28;20116;-83
2022/05/28 02:09:13;;;;;;;2.25;1.70;;;;;;;14.99;77.22;99797.00;5003498;28;20050;-84
2022/05/28 02:12:00;;;;;;;2.75;2.00;;;;;;;15.00;76.90;99799.31;5011383;28;20145;-83
2022/05/28 02:14:40;;;;;;;5.03;2.13;;;;;;;15.01;76.21;99800.06;5009758;28;20065;-83
2022/05/28 02:17:21;;;;;;;4.28;2.10;;;;;;;14.93;76.34;99786.44;5009556;28;20459;-83
2022/05/28 02:19:55;;;;;;;3.88;2.20;;;;;;;14.98;77.35;99784.25;5011148;28;20441;-83
2022/05/28 02:22:42;;;;;;;2.60;1.75;;;;;;;14.92;75.56;99784.91;5005355;28;20085;-83
2022/05/28 02:25:11;;;;;;;5.53;2.00;;;;;;;14.91;76.43;99769.41;5011842;28;20056;-83
2022/05/28 02:27:39;;;;;;;3.80;2.35;;;;;;;14.82;76.67;99765.88;5026417;28;20042;-84
2022/05/28 02:30:05;;;;;;;4.43;1.95;;;;;;;14.85;77.04;99774.06;5010917;28;20583;-83
2022/05/28 02:32:30;;;;;;;2.60;1.75;;;;;;;14.82;76.59;99772.25;5011178;28;20053;-83
2022/05/28 02:34:56;;;;;;;3.28;1.80;;;;;;;14.81;76.91;99765.09;5009978;28;20089;-84
2022/05/28 02:37:24;;;;;;;3.92;2.20;;;;;;;14.80;77.15;99769.13;5011124;28;20530;-84
2022/05/28 02:39:50;;;;;;;3.15;2.17;;;;;;;14.76;77.14;99753.81;5005721;28;20080;-83
2022/05/28 02:42:16;;;;;;;3.83;2.25;;;;;;;14.71;76.17;99752.44;5008238;28;20165;-84
2022/05/28 02:44:42;;;;;;;3.78;2.05;;;;;;;14.72;75.96;99761.59;5000858;28;20116;-84
2022/05/28 02:47:08;;;;;;;4.00;2.20;;;;;;;14.72;76.14;99767.94;5007022;28;20049;-84
2022/05/28 02:49:33;;;;;;;3.72;2.17;;;;;;;14.70;76.26;99778.81;5011137;28;20030;-84
2022/05/28 02:52:03;;;;;;;4.22;2.00;;;;;;;14.68;76.54;99784.06;5009310;28;20041;-84
2022/05/28 02:54:29;;;;;;;2.67;2.10;;;;;;;14.74;76.56;99775.84;5011330;28;20594;-84
2022/05/28 02:56:55;;;;;;;3.55;2.00;;;;;;;14.74;75.42;99787.78;5010016;28;20124;-83
2022/05/28 02:59:20;;;;;;;4.07;2.10;;;;;;;14.79;75.12;99798.31;5008586;28;20046;-83
2022/05/28 03:01:46;;;;;;;5.05;2.45;;;;;;;14.77;75.92;99802.81;5025346;28;20141;-83
2022/05/28 03:04:11;;;;;;;3.22;2.20;;;;;;;14.74;75.08;99789.81;5014382;28;20464;-84
2022/05/28 03:06:37;;;;;;;4.38;2.00;;;;;;;14.79;75.17;99801.13;5009605;28;20057;-83
2022/05/28 03:09:05;;;;;;;3.40;1.98;;;;;;;14.83;74.30;99793.34;5009217;28;20045;-84
2022/05/28 03:11:31;;;;;;;4.50;1.92;;;;;;;14.81;74.91;99792.25;5009058;28;20081;-83
2022/05/28 03:13:56;;;;;;;2.85;2.10;;;;;;;14.81;75.71;99787.44;5008982;28;20578;-83
2022/05/28 03:16:22;;;;;;;4.00;2.03;;;;;;;14.79;74.71;99784.34;5019382;28;20056;-84
2022/05/28 03:18:47;;;;;;;3.85;2.30;;;;;;;14.84;76.21;99791.31;5010042;28;20070;-84
2022/05/28 03:21:13;;;;;;;3.53;2.05;;;;;;;14.86;75.72;99795.19;5011104;28;20073;-84
2022/05/28 03:23:38;;;;;;;3.95;2.22;;;;;;;14.83;77.28;99795.34;5009793;28;20483;-84
2022/05/28 03:26:23;;;;;;;3.92;2.38;;;;;;;14.81;78.06;99801.41;5009685;28;20549;-83
2022/05/28 03:28:50;;;;;;;2.75;1.80;;;;;;;14.79;77.33;99803.91;5009781;28;20136;-83
2022/05/28 03:31:16;;;;;;;3.58;2.53;;;;;;;14.71;78.09;99794.31;4993554;28;20461;-84
2022/05/28 03:33:42;;;;;;;4.10;2.03;;;;;;;14.61;77.45;99778.84;5010349;28;20068;-84
2022/05/28 03:36:08;;;;;;;3.88;2.30;;;;;;;14.68;77.64;99789.66;5010005;28;20121;-83
2022/05/28 03:38:34;;;;;;;4.93;2.00;;;;;;;14.64;77.84;99800.22;5009344;28;20117;-83
2022/05/28 03:41:00;;;;;;;5.22;2.38;;;;;;;14.64;77.13;99816.97;5008656;28;20117;-83
2022/05/28 03:43:26;;;;;;;4.20;2.08;;;;;;;14.70;77.69;99831.06;4991206;28;20125;-83
2022/05/28 03:45:52;;;;;;;3.13;2.40;;;;;;;14.68;77.30;99834.31;4992606;28;20204;-83
2022/05/28 03:48:17;;;;;;;2.78;2.17;;;;;;;14.64;77.08;99816.97;5007720;28;20531;-83
2022/05/28 03:50:43;;;;;;;4.05;2.08;;;;;;;14.72;76.61;99834.94;5006868;28;20043;-83
2022/05/28 03:53:09;;;;;;;3.97;2.30;;;;;;;14.65;76.99;99829.69;5010113;28;20451;-83
2022/05/28 03:55:36;;;;;;;4.60;2.40;;;;;;;14.71;77.78;99833.41;5008002;28;20129;-84
2022/05/28 03:58:02;;;;;;;3.38;2.50;;;;;;;14.72;79.47;99848.16;5007241;28;20034;-84
2022/05/28 04:00:27;;;;;;;3.97;1.98;;;;;;;14.66;79.84;99848.00;5009804;28;20403;-84
2022/05/28 04:02:53;;;;;;;3.08;2.10;;;;;;;14.66;80.44;99842.41;5003146;28;20041;-84
2022/05/28 04:05:19;;;;;;;4.13;2.15;;;;;;;14.64;81.26;99836.50;4993297;28;20038;-84
2022/05/28 04:07:44;;;;;;;5.85;2.47;;;;;;;14.62;81.77;99836.22;4994110;28;20049;-84
2022/05/28 04:10:10;;;;;;;4.75;2.22;;;;;;;14.57;81.54;99834.06;4993933;28;20129;-84
2022/05/28 04:12:35;;;;;;;4.00;2.20;;;;;;;14.56;81.84;99842.91;4991545;28;20038;-83
2022/05/28 04:15:01;;;;;;;5.18;2.55;;;;;;;14.60;82.00;99841.47;4989982;28;20498;-83
2022/05/28 04:17:26;;;;;;;4.38;2.60;;;;;;;14.55;81.92;99819.81;4992439;28;20054;-83
2022/05/28 04:19:52;;;;;;;3.10;2.30;;;;;;;14.60;81.90;99835.91;4993298;28;20031;-83
2022/05/28 04:22:17;;;;;;;4.30;2.42;;;;;;;14.64;82.23;99839.28;4992333;28;20039;-83
2022/05/28 04:24:43;;;;;;;4.25;2.40;;;;;;;14.64;81.51;99842.09;4993582;28;20555;-83
2022/05/28 04:27:09;;;;;;;6.35;2.47;;;;;;;14.64;82.10;99828.13;4992937;28;20053;-83
2022/05/28 04:29:34;;;;;;;3.97;2.30;;;;;;;14.63;81.29;99826.59;4993865;28;20031;-84
2022/05/28 04:32:00;;;;;;;3.67;2.10;;;;;;;14.70;81.36;99823.47;4993200;28;20460;-84
2022/05/28 04:34:25;;;;;;;4.50;2.20;;;;;;;14.68;81.32;99817.56;4991311;28;20542;-83
2022/05/28 04:36:51;;;;;;;4.20;2.10;;;;;;;14.74;82.10;99815.69;4993097;28;20065;-83
2022/05/28 04:39:17;;;;;;;4.63;2.20;;;;;;;14.77;81.78;99809.16;4991248;28;20066;-83
2022/05/28 04:41:43;;;;;;;2.95;2.13;;;;;;;14.79;81.90;99808.72;4994219;28;20054;-83
2022/05/28 04:44:08;;;;;;;5.03;2.40;;;;;;;14.80;81.66;99802.63;4994881;28;20105;-83
2022/05/28 04:46:34;;;;;;;4.18;2.35;;;;;;;14.78;82.54;99805.13;4991661;28;20034;-83
2022/05/28 04:48:59;;;;;;;2.75;2.33;;;;;;;14.69;83.19;99801.59;4997627;28;20046;-83
2022/05/28 04:51:25;;;;;;;3.92;2.40;;;;;;;14.71;84.63;99816.66;4992926;28;20042;-84
2022/05/28 04:53:51;;;;;;;5.10;2.17;;;;;;;14.68;84.96;99812.00;4991331;28;20105;-83
2022/05/28 04:56:16;;;;;;;4.32;2.47;;;;;;;14.67;86.39;99799.28;4993436;28;20046;-83
2022/05/28 04:58:42;;;;;;;4.70;2.80;;;;;;;14.66;86.75;99783.78;4990280;28;20057;-83
2022/05/28 05:01:12;;;;;;;3.60;2.50;;;;;;;14.62;86.82;99783.19;4982094;28;20047;-82
2022/05/28 05:03:38;;;;;;;5.55;2.80;;;;;;;14.54;86.60;99801.50;5015420;28;20049;-83
2022/05/28 05:06:03;;;;;;;4.78;2.60;;;;;;;14.50;87.90;99809.25;5024510;28;20051;-83
2022/05/28 05:08:30;;;;;;;4.57;2.45;;;;;;;14.49;88.20;99821.66;5029991;28;20037;-83
2022/05/28 05:10:56;;;;;;;3.60;2.25;;;;;;;14.46;88.61;99837.34;5030068;28;20038;-83
2022/05/28 05:13:22;;;;;;;4.97;3.00;;;;;;;14.47;90.19;99838.13;5030113;28;20054;-83
2022/05/28 05:15:47;;;;;;;4.97;4.03;;;;;;;14.43;89.76;99837.50;5030399;28;20159;-82
2022/05/28 05:18:13;;;;;;;5.25;2.60;;;;;;;14.48;90.05;99848.03;5023529;28;20645;-83
2022/05/28 05:20:38;;;;;;;4.03;2.50;;;;;;;14.46;88.64;99850.50;5019202;28;20109;-82
2022/05/28 05:23:08;;;;;;;7.70;4.90;;;;;;;14.43;88.99;99854.25;5022103;28;20045;-83
2022/05/28 05:25:33;;;;;;;4.15;2.83;;;;;;;14.45;89.77;99865.72;5026084;28;20117;-83
2022/05/28 05:27:59;;;;;;;4.68;2.53;;;;;;;14.44;88.63;99887.25;5032447;28;20124;-82
2022/05/28 05:30:29;;;;;;;5.32;2.60;;;;;;;14.50;88.36;99895.78;5012219;28;20041;-82
2022/05/28 05:32:55;;;;;;;7.22;4.30;;;;;;;14.54;88.58;99873.28;5032592;28;20072;-82
2022/05/28 05:35:20;;;;;;;5.00;3.90;;;;;;;14.45;90.77;99837.81;5030172;28;20120;-82
2022/05/28 05:37:46;;;;;;;4.65;2.60;;;;;;;14.50;89.70;99834.38;5014724;28;20041;-82
2022/05/28 05:40:12;;;;;;;4.22;2.60;;;;;;;14.56;90.59;99846.44;5032958;28;20045;-82
2022/05/28 05:42:38;;;;;;;3.67;2.83;;;;;;;14.67;92.65;99860.72;5014962;28;20068;-82
2022/05/28 05:45:04;;;;;;;4.90;2.47;;;;;;;14.71;93.68;99855.75;5032426;28;20120;-82
2022/05/28 05:47:30;;;;;;;5.18;2.70;;;;;;;14.72;92.52;99843.31;5032696;28;20483;-81
2022/05/28 05:49:55;;;;;;;3.63;2.63;;;;;;;14.79;93.72;99862.53;5032630;28;20253;-89
2022/05/28 05:52:21;;;;;;;3.70;2.50;;;;;;;14.84;94.72;99866.72;5032374;28;20453;-90
2022/05/28 05:54:49;;;;;;;4.07;2.92;;;;;;;14.80;95.79;99864.06;5032121;28;20048;-90
2022/05/28 05:57:15;;;;;;;5.43;2.80;;;;;;;14.88;95.68;99861.75;5020795;28;20041;-90
2022/05/28 05:59:40;;;;;;;4.47;2.95;;;;;;;14.93;95.23;99872.25;5012277;28;20052;-91
2022/05/28 06:02:07;;;;;;;4.28;2.80;;;;;;;14.94;94.83;99885.75;5024051;28;20049;-92
2022/05/28 06:04:32;;;;;;;4.95;3.20;;;;;;;14.90;94.32;99896.31;5025060;28;20049;-91
2022/05/28 06:06:58;;;;;;;5.57;3.03;;;;;;;15.00;92.99;99916.63;5020396;28;20055;-84
2022/05/28 06:09:23;;;;;;;3.60;2.80;;;;;;;14.99;91.94;99920.66;5024108;28;20044;-83
2022/05/28 06:11:50;;;;;;;3.90;3.15;;;;;;;14.97;91.42;99902.81;5032104;28;20041;-83
2022/05/28 06:14:18;;;;;;;5.43;2.95;;;;;;;14.96;90.73;99918.03;5031638;28;20041;-83
2022/05/28 06:16:43;;;;;;;6.53;2.90;;;;;;;14.91;90.99;99928.59;5023467;28;20394;-83
2022/05/28 06:19:09;;;;;;;4.03;2.80;;;;;;;14.89;93.64;99939.44;5021091;28;20042;-83
2022/05/28 06:21:35;;;;;;;5.28;2.85;;;;;;;14.76;96.13;99933.25;5018983;28;20025;-83
2022/05/28 06:24:03;;;;;;;5.32;2.90;;;;;;;14.70;98.04;99923.19;5021950;28;20038;-91
2022/05/28 06:26:29;;;;;;;4.03;3.13;;;;;;;14.57;98.66;99923.38;5023043;28;20041;-92
2022/05/28 06:28:55;;;;;;;6.30;3.40;;;;;;;14.47;100.00;99924.63;5018958;28;20415;-93
2022/05/28 06:31:20;;;;;;;4.47;3.67;;;;;;;14.36;100.00;99901.97;5022007;28;20032;-94
2022/05/28 06:33:46;;;;;;;5.20;3.38;;;;;;;14.31;100.00;99916.56;5010022;28;20033;-92
2022/05/28 06:36:13;;;;;;;7.32;3.50;;;;;;;14.40;100.00;99910.97;5032141;28;20042;-93
2022/05/28 06:38:38;;;;;;;4.10;3.40;;;;;;;14.34;100.00;99910.03;4998143;28;20062;-91
2022/05/28 06:41:04;;;;;;;5.50;3.35;;;;;;;14.32;100.00;99918.84;5031485;28;20045;-92
2022/05/28 06:43:30;;;;;;;3.85;3.40;;;;;;;14.37;100.00;99920.28;5041726;28;20055;-92
2022/05/28 06:45:56;;;;;;;4.70;3.50;;;;;;;14.49;100.00;99922.13;5035093;28;20033;-85
2022/05/28 06:48:21;;;;;;;3.97;3.13;;;;;;;14.53;100.00;99919.97;5031717;28;20502;-85
2022/05/28 06:51:09;;;;;;;5.85;3.65;;;;;;;14.60;100.00;99928.00;5020754;28;20103;-85
2022/05/28 06:53:36;;;;;;;4.30;3.28;;;;;;;14.59;100.00;99926.47;5020486;28;20132;-84
2022/05/28 06:56:02;;;;;;;7.07;3.50;;;;;;;14.62;100.00;99919.97;5021138;28;20494;-85
2022/05/28 06:58:28;;;;;;;5.13;3.50;;;;;;;14.75;100.00;99920.56;5019370;28;20034;-84
2022/05/28 07:00:54;;;;;;;7.30;3.60;;;;;;;14.79;100.00;99918.38;5019907;28;20406;-85
2022/05/28 07:03:22;;;;;;;5.43;3.90;;;;;;;14.90;100.00;99920.69;5019648;28;20490;-84
2022/05/28 07:05:47;;;;;;;4.95;3.20;;;;;;;14.82;98.93;99909.06;5002784;28;20046;-83
2022/05/28 07:08:13;;;;;;;5.60;3.63;;;;;;;14.65;100.00;99910.66;4987555;28;20044;-82
2022/05/28 07:10:43;;;;;;;7.45;3.33;;;;;;;14.67;100.00;99904.59;5031742;28;20033;-81
2022/05/28 07:13:10;;;;;;;6.28;3.58;;;;;;;14.73;100.00;99909.06;5021493;28;20124;-81
2022/05/28 07:15:36;;;;;;;6.13;3.50;;;;;;;14.70;100.00;99893.28;5025372;28;20041;-81
2022/05/28 07:18:02;;;;;;;5.63;3.85;;;;;;;14.87;100.00;99902.84;5025723;28;20049;-81
2022/05/28 07:20:27;;;;;;;4.20;3.38;;;;;;;15.00;100.00;99899.88;5026123;28;20069;-81
2022/05/28 07:22:53;;;;;;;5.63;3.45;;;;;;;15.00;100.00;99893.50;5005842;28;20041;-82
2022/05/28 07:25:18;;;;;;;3.88;3.15;;;;;;;15.12;100.00;99895.31;5020793;28;20038;-82
2022/05/28 07:27:44;;;;;;;5.65;3.97;;;;;;;15.17;100.00;99903.03;5024289;28;20045;-82
2022/05/28 07:30:10;;;;;;;4.90;4.03;;;;;;;15.18;100.00;99901.81;5026685;28;20025;-82
2022/05/28 07:32:35;;;;;;;4.25;3.58;;;;;;;15.00;99.48;99905.47;5027834;28;20034;-83
2022/05/28 07:35:01;;;;;;;5.90;3.50;;;;;;;14.96;99.11;99910.44;5017814;28;20042;-83
2022/05/28 07:37:30;;;;;;;5.03;3.70;;;;;;;15.03;98.15;99926.84;5022040;28;20049;-83
2022/05/28 07:39:57;;;;;;;4.75;3.85;;;;;;;15.10;98.49;99923.72;5020562;28;20495;-82
2022/05/28 07:42:23;;;;;;;5.13;3.10;;;;;;;15.14;97.66;99929.91;5026827;28;20407;-89
2022/05/28 07:44:48;;;;;;;4.10;3.33;;;;;;;15.18;97.16;99938.13;5034638;28;20030;-89
2022/05/28 07:47:14;;;;;;;7.50;3.78;;;;;;;15.19;96.74;99940.47;4999501;28;20045;-90
2022/05/28 07:49:39;;;;;;;5.38;3.60;;;;;;;15.14;97.09;99943.09;5025887;28;20029;-89
2022/05/28 07:52:06;;;;;;;5.80;3.60;;;;;;;15.21;97.11;99937.19;5032452;28;20558;-89
2022/05/28 07:54:32;;;;;;;4.97;3.50;;;;;;;15.15;95.16;99933.50;5009192;28;20041;-89
2022/05/28 07:56:58;;;;;;;5.40;3.50;;;;;;;15.03;96.15;99926.06;5023723;28;20029;-90
2022/05/28 07:59:23;;;;;;;6.30;4.05;;;;;;;15.15;97.15;99927.91;5016858;28;20560;-83
2022/05/28 08:01:49;;;;;;;6.30;4.50;;;;;;;15.12;100.00;99932.41;5004811;28;20060;-83
2022/05/28 08:04:14;;;;;;;4.97;4.05;;;;;;;15.07;100.00;99927.47;5025851;28;20048;-82
2022/05/28 08:06:41;;;;;;;4.80;4.20;;;;;;;15.14;100.00;99920.75;5025985;28;20527;-83
2022/05/28 08:09:08;;;;;;;5.75;4.30;;;;;;;15.16;100.00;99927.44;5023011;28;20099;-82
2022/05/28 08:11:33;;;;;;;8.20;4.47;;;;;;;15.20;100.00;99924.47;5025396;28;20029;-83
2022/05/28 08:13:59;;;;;;;6.50;4.00;;;;;;;15.26;100.00;99905.81;5025629;28;20064;-82
2022/05/28 08:16:25;;;;;;;5.47;4.10;;;;;;;15.27;100.00;99901.78;5007891;28;20036;-82
2022/05/28 08:18:51;;;;;;;5.40;4.63;;;;;;;15.26;100.00;99901.00;5006563;28;20054;-82
2022/05/28 08:24:00;;;;;;;5.65;4.55;;;;;;;15.52;99.97;99932.13;5026670;28;20122;-82
2022/05/28 08:26:26;;;;;;;7.47;4.20;;;;;;;15.55;100.00;99922.78;5026933;28;20348;-82
2022/05/28 08:28:53;;;;;;;5.68;4.18;;;;;;;15.54;99.09;99932.41;5009782;28;20034;-81
2022/05/28 08:31:19;;;;;;;6.88;4.00;;;;;;;15.49;99.32;99935.81;5009381;28;20414;-81
2022/05/28 08:33:46;;;;;;;5.75;4.35;;;;;;;15.52;100.00;99940.53;5020827;28;20478;-82
2022/05/28 08:36:12;;;;;;;7.07;4.00;;;;;;;15.49;98.95;99952.59;5020367;28;20048;-82
2022/05/28 08:38:39;;;;;;;6.35;3.78;;;;;;;15.47;98.16;99955.09;5024170;28;20037;-82
2022/05/28 08:41:15;;;;;;;4.65;3.35;;;;;;;15.48;97.74;99964.28;5016599;28;20038;-90
2022/05/28 08:44:18;;;;;;;5.40;3.72;;;;;;;15.46;99.51;99942.38;5007553;28;20113;-90
2022/05/28 08:46:45;;;;;;;6.15;3.90;;;;;;;15.52;99.64;99968.47;4992120;28;20455;-89
2022/05/28 08:49:12;;;;;;;7.00;4.28;;;;;;;15.54;100.00;99960.38;5012847;28;20041;-90
2022/05/28 08:51:45;;;;;;;4.43;3.53;;;;;;;15.53;100.00;99970.00;5013083;28;20038;-90
2022/05/28 08:54:29;;;;;;;6.20;4.07;;;;;;;15.31;100.00;99972.25;5029545;28;20033;-90
2022/05/28 08:56:57;;;;;;;8.05;4.70;;;;;;;15.01;100.00;99962.06;5020275;28;20406;-84
2022/05/28 08:59:33;;;;;;;6.22;4.65;;;;;;;14.88;100.00;99960.22;5024061;28;20029;-81
2022/05/28 09:01:59;;;;;;;7.78;4.43;;;;;;;14.87;100.00;99953.13;5015838;28;20042;-82
2022/05/28 09:04:30;;;;;;;10.98;5.10;;;;;;;14.81;100.00;99954.97;5048178;28;20128;-82
2022/05/28 09:06:59;;;;;;;7.50;5.50;;;;;;;14.79;100.00;99951.91;5015964;28;20099;-82
2022/05/28 09:09:44;;;;;;;9.45;5.60;;;;;;;14.80;100.00;99959.00;5012190;28;20076;-82
2022/05/28 09:12:46;;;;;;;5.60;4.90;;;;;;;14.76;100.00;99963.97;5009772;28;20518;-82
2022/05/28 09:15:12;;;;;;;7.55;5.00;;;;;;;14.68;100.00;99951.56;5016666;28;20133;-82
2022/05/28 09:17:57;;;;;;;9.75;5.68;;;;;;;14.72;100.00;99945.84;5004403;28;20040;-82
2022/05/28 09:20:44;;;;;;;7.97;5.40;;;;;;;14.71;100.00;99935.94;5026687;28;20093;-82
2022/05/28 09:23:10;;;;;;;9.77;5.72;;;;;;;14.69;100.00;99941.97;5030258;28;20403;-82
2022/05/28 09:25:41;;;;;;;7.85;5.22;;;;;;;14.71;100.00;99947.09;5008448;28;20127;-82
2022/05/28 09:28:24;;;;;;;7.15;5.05;;;;;;;14.63;100.00;99938.28;5029020;28;20136;-82
2022/05/28 09:31:05;;;;;;;6.32;5.00;;;;;;;14.69;100.00;99947.56;5019372;28;20053;-82
2022/05/28 09:34:12;;;;;;;7.35;4.60;;;;;;;14.61;100.00;99951.91;5030717;28;20119;-82
2022/05/28 09:36:58;;;;;;;6.72;4.70;;;;;;;14.50;100.00;99954.41;5028837;28;20100;-82
2022/05/28 09:39:39;;;;;;;6.47;4.78;;;;;;;14.51;100.00;99955.19;5023487;28;20053;-85
2022/05/28 09:42:30;;;;;;;5.38;4.78;;;;;;;14.50;100.00;99948.03;5027366;28;20065;-85
2022/05/28 09:44:55;;;;;;;7.43;4.63;;;;;;;14.53;100.00;99939.50;5031758;28;20041;-85
2022/05/28 09:47:21;;;;;;;6.45;5.43;;;;;;;14.56;100.00;99941.34;5011589;28;20522;-86
2022/05/28 09:49:54;;;;;;;7.85;5.40;;;;;;;14.71;100.00;99947.09;5030510;28;20045;-85
2022/05/28 09:54:16;;;;;;;7.50;6.00;;;;;;;14.73;100.00;99953.75;5013486;28;20085;-86
2022/05/28 09:55:22;;;;;;;6.55;5.45;;;;;;;14.73;100.00;99939.78;5023725;28;20419;-86
2022/05/28 09:58:03;;;;;;;8.10;5.75;;;;;;;14.58;100.00;99941.69;4993953;28;20094;-81
2022/05/28 10:00:29;;;;;;;8.43;5.18;;;;;;;14.62;100.00;99942.28;5013647;28;20115;-82
2022/05/28 10:05:57;;;;;;;5.85;4.60;;;;;;;14.65;100.00;99943.38;5031044;28;20053;-82
2022/05/28 10:08:30;;;;;;;7.25;5.28;;;;;;;14.72;100.00;99935.44;5010694;28;20372;-82
2022/05/28 10:11:00;;;;;;;7.57;4.97;;;;;;;14.76;100.00;99930.47;5013305;28;20045;-82
2022/05/28 10:13:28;;;;;;;5.88;4.80;;;;;;;14.75;100.00;99920.56;5011131;28;20503;-82
2022/05/28 10:16:01;;;;;;;6.75;4.90;;;;;;;14.87;100.00;99928.00;4994967;28;20057;-82
2022/05/28 10:18:57;;;;;;;7.95;5.25;;;;;;;14.83;100.00;99934.97;5029410;28;20490;-80
2022/05/28 10:21:37;;;;;;;7.43;4.90;;;;;;;14.86;100.00;99934.81;5013159;28;20056;-81
2022/05/28 10:24:07;;;;;;;6.85;4.82;;;;;;;14.79;100.00;99928.78;5011214;28;20446;-80
2022/05/28 10:26:38;;;;;;;5.63;4.57;;;;;;;14.79;100.00;99935.13;4997335;28;20116;-80
2022/05/28 10:29:06;;;;;;;6.10;4.47;;;;;;;14.82;100.00;99925.81;5012165;28;20045;-80
2022/05/28 10:31:37;;;;;;;5.85;4.40;;;;;;;14.83;100.00;99923.81;5013124;28;20045;-80
2022/05/28 10:34:07;;;;;;;8.48;4.65;;;;;;;14.82;100.00;99916.66;5011668;28;20049;-81
2022/05/28 10:36:35;;;;;;;6.05;4.47;;;;;;;14.85;100.00;99926.88;5013059;28;20049;-84
2022/05/28 10:39:16;;;;;;;6.30;4.30;;;;;;;14.78;100.00;99928.00;5029055;28;20114;-84
2022/05/28 10:41:44;;;;;;;6.82;4.68;;;;;;;14.72;100.00;99917.94;5011595;28;20038;-83
2022/05/28 10:44:13;;;;;;;5.82;4.80;;;;;;;14.73;100.00;99919.47;5011367;28;20049;-84
2022/05/28 10:46:44;;;;;;;6.45;5.10;;;;;;;14.90;100.00;99918.66;5013097;28;20033;-83
2022/05/28 10:49:31;;;;;;;9.02;5.15;;;;;;;15.05;100.00;99926.38;5028922;28;20533;-84
2022/05/28 10:52:03;;;;;;;8.25;4.68;;;;;;;15.07;100.00;99913.50;5029532;28;20049;-84
2022/05/28 10:54:31;;;;;;;8.20;4.93;;;;;;;15.16;100.00;99918.28;5008280;28;20423;-84
2022/05/28 10:57:22;;;;;;;6.55;4.80;;;;;;;15.14;100.00;99920.75;5028317;28;20584;-86
2022/05/28 11:00:13;;;;;;;9.63;5.70;;;;;;;15.16;100.00;99918.28;5009970;28;20062;-85
2022/05/28 11:03:20;;;;;;;7.85;4.90;;;;;;;15.01;100.00;99926.53;5012707;28;20088;-85
2022/05/28 11:06:11;;;;;;;7.10;4.72;;;;;;;15.05;100.00;99929.16;5029732;28;20538;-85
2022/05/28 11:08:46;;;;;;;7.68;4.65;;;;;;;14.98;100.00;99912.75;5028471;28;20049;-85
2022/05/28 11:11:49;;;;;;;5.85;4.60;;;;;;;15.08;100.00;99919.88;5028574;28;20077;-84
2022/05/28 11:14:33;;;;;;;7.45;4.68;;;;;;;15.22;100.00;99910.78;5027414;28;20065;-81
2022/05/28 11:17:03;;;;;;;6.55;4.28;;;;;;;15.36;100.00;99915.72;5009314;28;20403;-81
2022/05/28 11:20:05;;;;;;;6.45;4.32;;;;;;;15.37;100.00;99906.06;5008054;28;20042;-81
2022/05/28 11:22:49;;;;;;;5.75;3.85;;;;;;;15.53;98.53;99911.28;5020157;28;20041;-81
2022/05/28 11:25:18;;;;;;;5.95;3.90;;;;;;;15.63;96.28;99912.81;5024351;28;20041;-81
2022/05/28 11:28:14;;;;;;;6.93;4.00;;;;;;;15.60;94.04;99902.59;5029993;28;20045;-81
2022/05/28 11:30:45;;;;;;;7.40;3.80;;;;;;;15.54;93.70;99904.47;5010223;28;20146;-81
2022/05/28 11:33:13;;;;;;;6.90;4.15;;;;;;;15.39;93.25;99900.78;5010843;28;20057;-81
2022/05/28 11:35:47;;;;;;;5.18;3.25;;;;;;;15.43;93.71;99897.81;5022896;28;20483;-81
2022/05/28 11:38:12;;;;;;;;;;;;;;;15.56;94.71;99898.41;5001869;28;20041;-81
2022/05/28 11:40:48;;;;;;;5.57;3.53;;;;;;;15.64;92.16;99892.00;5018531;28;19967;-81
2022/05/28 11:43:19;;;;;;;6.22;3.90;;;;;;;15.68;91.48;99891.81;5022433;28;20053;-82
2022/05/28 11:45:59;;;;;;;7.32;3.50;;;;;;;15.61;92.20;99887.31;5003668;28;20072;-81
2022/05/28 11:51:39;;;;;;;6.00;3.30;;;;;;;15.86;90.02;99880.50;5018916;28;20058;-81
2022/05/28 11:54:09;;;;;;;5.18;3.63;;;;;;;15.81;88.32;99881.91;5022304;28;20088;-82
2022/05/28 11:56:34;;;;;;;8.63;3.88;;;;;;;15.82;87.54;99869.50;5015595;28;20140;-81
2022/05/28 11:59:26;;;;;;;3.67;3.30;;;;;;;15.88;85.81;99871.63;5029393;28;20120;-82
2022/05/28 12:01:57;;;;;;;5.97;3.17;;;;;;;15.86;84.08;99869.31;5025698;28;20077;-81
2022/05/28 12:04:23;;;;;;;5.10;3.33;;;;;;;15.77;87.05;99870.13;5028131;28;20116;-82
2022/05/28 12:07:02;;;;;;;5.70;3.60;;;;;;;15.85;85.88;99878.97;5027452;28;20136;-84